Time;durP1;ratioP1;P1;durP2;ratioP2;P2;SDS_P1;SDS_P2;PMS_P1;PMS_P2;Temp;Humidity;BMP_temperature;BMP_pressure;BME280_temperature;BME280_humidity;BME280_pressure;Samples;Min_cycle;Max_cycle;Signal;HPM_P1;HPM_P2
2022/04/06 00:01:03;;;;;;;18.90;12.27;;;6.00;99.90;;;;;;5066048;28;20198;-53
2022/04/06 00:03:30;;;;;;;17.30;11.60;;;6.00;99.90;;;;;;5049405;28;20210;-49
2022/04/06 00:05:58;;;;;;;22.27;13.20;;;6.00;99.90;;;;;;5064799;28;20203;-47
2022/04/06 00:08:25;;;;;;;20.00;13.13;;;6.10;99.90;;;;;;5056076;28;20218;-48
2022/04/06 00:10:52;;;;;;;21.43;12.87;;;6.00;99.90;;;;;;5066227;28;20552;-50
2022/04/06 00:13:19;;;;;;;21.53;13.33;;;6.00;99.90;;;;;;5062709;28;20218;-50
2022/04/06 00:15:46;;;;;;;18.50;12.60;;;6.10;99.90;;;;;;5064669;28;20616;-49
2022/04/06 00:18:13;;;;;;;18.20;12.60;;;6.10;99.90;;;;;;5063671;28;20219;-48
2022/04/06 00:20:40;;;;;;;19.23;12.83;;;6.10;99.90;;;;;;5047367;28;20190;-52
2022/04/06 00:23:09;;;;;;;19.20;11.67;;;6.20;99.90;;;;;;5056469;28;20210;-50
2022/04/06 00:25:36;;;;;;;16.97;11.13;;;6.20;99.90;;;;;;5062712;28;20194;-48
2022/04/06 00:28:04;;;;;;;14.83;9.27;;;6.30;99.90;;;;;;5065159;28;20226;-47
2022/04/06 00:30:30;;;;;;;14.87;8.93;;;6.50;99.90;;;;;;5061752;28;20918;-46
2022/04/06 00:32:57;;;;;;;10.57;6.73;;;6.80;99.90;;;;;;5065714;28;20211;-50
2022/04/06 00:35:31;;;;;;;8.90;6.10;;;7.00;99.90;;;;;;5047544;28;20870;-49
2022/04/06 00:37:59;;;;;;;9.83;5.40;;;7.20;99.90;;;;;;5064746;28;20214;-50
2022/04/06 00:40:27;;;;;;;5.77;5.00;;;7.40;99.90;;;;;;5055339;28;20202;-46
2022/04/06 00:42:54;;;;;;;5.90;4.63;;;7.50;99.90;;;;;;5065808;28;20205;-51
2022/04/06 00:45:21;;;;;;;5.80;5.00;;;7.60;99.90;;;;;;5061657;28;20230;-51
2022/04/06 00:47:49;;;;;;;6.43;4.80;;;7.70;99.90;;;;;;5064433;28;20283;-49
2022/04/06 00:50:16;;;;;;;6.23;5.00;;;7.80;99.90;;;;;;5062659;28;20203;-48
2022/04/06 00:52:44;;;;;;;5.47;4.67;;;7.90;99.90;;;;;;5053783;28;20285;-48
2022/04/06 00:55:13;;;;;;;5.87;4.30;;;7.90;99.90;;;;;;5057250;28;20222;-52
2022/04/06 00:57:42;;;;;;;7.23;4.90;;;8.00;99.90;;;;;;5062775;28;20207;-48
2022/04/06 01:00:10;;;;;;;6.70;4.57;;;8.10;99.90;;;;;;5063937;28;20307;-51
2022/04/06 01:02:36;;;;;;;7.03;4.53;;;8.10;99.90;;;;;;5062818;28;20198;-48
2022/04/06 01:05:04;;;;;;;4.90;4.40;;;8.10;99.90;;;;;;5064847;28;20198;-52
2022/04/06 01:07:31;;;;;;;5.60;4.67;;;8.10;99.90;;;;;;5043252;28;21010;-49
2022/04/06 01:09:57;;;;;;;4.60;4.20;;;8.20;99.90;;;;;;5057805;28;20203;-47
2022/04/06 01:12:25;;;;;;;6.10;4.50;;;8.20;99.90;;;;;;5060728;28;20191;-47
2022/04/06 01:14:54;;;;;;;5.30;3.90;;;8.20;99.90;;;;;;5064774;28;20246;-49
2022/04/06 01:17:22;;;;;;;4.57;4.17;;;8.20;99.90;;;;;;5059891;28;20218;-49
2022/04/06 01:19:51;;;;;;;5.53;4.20;;;8.20;99.90;;;;;;5064492;28;20206;-49
2022/04/06 01:22:20;;;;;;;5.97;4.97;;;8.20;99.90;;;;;;5053489;28;20548;-51
2022/04/06 01:24:48;;;;;;;5.07;4.50;;;8.20;99.90;;;;;;5064042;28;20287;-50
2022/04/06 01:27:16;;;;;;;5.43;4.17;;;8.20;99.90;;;;;;5055215;28;20309;-52
2022/04/06 01:29:43;;;;;;;4.83;4.43;;;8.20;99.90;;;;;;5063471;28;20206;-51
2022/04/06 01:32:11;;;;;;;5.00;4.53;;;8.20;99.90;;;;;;5061893;28;20202;-46
2022/04/06 01:34:39;;;;;;;4.87;4.47;;;8.30;99.90;;;;;;5062602;28;20218;-48
2022/04/06 01:37:08;;;;;;;4.67;4.27;;;8.20;99.90;;;;;;5060468;28;20314;-49
2022/04/06 01:39:37;;;;;;;4.47;4.13;;;8.20;99.90;;;;;;5054666;28;20195;-49
2022/04/06 01:42:06;;;;;;;4.33;3.93;;;8.30;99.90;;;;;;5058282;28;20225;-45
2022/04/06 01:44:33;;;;;;;4.93;4.20;;;8.30;99.90;;;;;;5061214;28;20199;-51
2022/04/06 01:47:00;;;;;;;4.03;3.73;;;8.30;99.90;;;;;;5062976;28;20723;-48
2022/04/06 01:52:15;;;;;;;4.57;4.07;;;8.30;99.90;;;;;;5055584;28;20195;-48
2022/04/06 01:54:46;;;;;;;3.83;3.40;;;8.30;99.90;;;;;;5064310;28;20229;-47
2022/04/06 01:57:14;;;;;;;4.67;3.40;;;8.30;99.90;;;;;;5055225;28;20231;-47
2022/04/06 01:59:41;;;;;;;3.70;3.27;;;8.30;99.90;;;;;;5062313;28;20194;-47
2022/04/06 02:02:10;;;;;;;3.83;3.53;;;8.30;99.90;;;;;;5062491;28;20659;-48
2022/04/06 02:04:38;;;;;;;4.87;3.40;;;8.30;99.90;;;;;;5061302;28;20898;-47
2022/04/06 02:07:05;;;;;;;3.67;3.37;;;8.30;99.90;;;;;;5062720;28;20226;-49
2022/04/06 02:09:32;;;;;;;6.23;2.97;;;8.30;99.90;;;;;;5043421;28;20186;-46
2022/04/06 02:12:01;;;;;;;2.77;2.57;;;8.30;99.90;;;;;;5063555;28;20199;-45
2022/04/06 02:14:28;;;;;;;3.07;2.87;;;8.30;99.90;;;;;;5053587;28;20210;-46
2022/04/06 02:16:55;;;;;;;3.43;2.97;;;8.30;99.90;;;;;;5062402;28;20225;-46
2022/04/06 02:19:22;;;;;;;5.57;3.03;;;8.30;99.90;;;;;;5059506;28;20198;-47
2022/04/06 02:21:49;;;;;;;2.70;2.50;;;8.30;99.90;;;;;;5062805;28;20195;-52
2022/04/06 02:24:17;;;;;;;4.13;3.57;;;8.30;99.90;;;;;;5047349;28;20213;-46
2022/04/06 02:26:44;;;;;;;2.80;2.60;;;8.30;99.90;;;;;;5061739;28;20579;-46
2022/04/06 02:29:13;;;;;;;3.40;3.10;;;8.30;99.90;;;;;;5055638;28;20209;-48
2022/04/06 02:31:40;;;;;;;4.00;3.67;;;8.30;99.90;;;;;;5061610;28;20191;-50
2022/04/06 02:34:07;;;;;;;4.83;3.50;;;8.30;99.90;;;;;;5062553;28;20211;-51
2022/04/06 02:36:34;;;;;;;3.93;3.23;;;8.30;99.90;;;;;;5059299;28;20241;-46
2022/04/06 02:39:01;;;;;;;5.07;3.30;;;8.30;99.90;;;;;;5063372;28;20202;-46
2022/04/06 02:41:28;;;;;;;3.97;3.10;;;8.30;99.90;;;;;;5045266;28;20279;-50
2022/04/06 02:43:55;;;;;;;4.87;3.80;;;8.30;99.90;;;;;;5063393;28;20198;-45
2022/04/06 02:46:23;;;;;;;5.33;3.80;;;8.30;99.90;;;;;;5052438;28;20732;-49
2022/04/06 02:48:50;;;;;;;4.10;3.80;;;8.30;99.90;;;;;;5063556;28;20220;-45
2022/04/06 02:51:17;;;;;;;4.13;3.23;;;8.30;99.90;;;;;;5060132;28;20202;-49
2022/04/06 02:53:44;;;;;;;6.80;4.00;;;8.30;99.90;;;;;;5061395;28;20190;-46
2022/04/06 02:56:11;;;;;;;7.87;3.90;;;8.20;99.90;;;;;;5047412;28;20211;-46
2022/04/06 02:58:37;;;;;;;4.37;3.80;;;8.20;99.90;;;;;;5060793;28;20198;-48
2022/04/06 03:01:04;;;;;;;4.57;3.80;;;8.30;99.90;;;;;;5056606;28;20210;-47
2022/04/06 03:03:32;;;;;;;4.87;4.03;;;8.20;99.90;;;;;;5059468;28;20191;-48
2022/04/06 03:05:59;;;;;;;6.07;4.27;;;8.20;99.90;;;;;;5062127;28;20194;-47
2022/04/06 03:08:26;;;;;;;8.77;4.53;;;8.20;99.90;;;;;;5058657;28;20237;-45
2022/04/06 03:10:53;;;;;;;5.57;4.47;;;8.20;99.90;;;;;;5047522;28;20702;-45
2022/04/06 03:13:20;;;;;;;5.50;5.00;;;8.20;99.90;;;;;;5053121;28;20198;-48
2022/04/06 03:15:46;;;;;;;5.77;4.73;;;8.20;99.90;;;;;;5055827;28;20861;-47
2022/04/06 03:18:13;;;;;;;6.20;4.47;;;8.20;99.90;;;;;;5058846;28;20993;-49
2022/04/06 03:20:42;;;;;;;7.40;5.03;;;8.20;99.90;;;;;;5062428;28;20202;-49
2022/04/06 03:23:09;;;;;;;10.50;6.17;;;8.20;99.90;;;;;;5059038;28;20269;-52
2022/04/06 03:25:36;;;;;;;7.70;5.53;;;8.20;99.90;;;;;;5051947;28;20554;-46
2022/04/06 03:28:03;;;;;;;8.93;6.20;;;8.20;99.90;;;;;;5060334;28;20214;-46
2022/04/06 03:30:30;;;;;;;7.07;5.80;;;8.20;99.90;;;;;;5059153;28;20191;-49
2022/04/06 03:32:57;;;;;;;9.43;6.60;;;8.20;99.90;;;;;;5057255;28;20252;-49
2022/04/06 03:35:24;;;;;;;12.10;7.20;;;8.20;99.90;;;;;;5064029;28;20226;-45
2022/04/06 03:37:52;;;;;;;8.07;7.10;;;8.20;99.90;;;;;;5066095;28;20225;-48
2022/04/06 03:40:19;;;;;;;7.60;6.80;;;8.20;99.90;;;;;;5063085;28;20193;-49
2022/04/06 03:42:46;;;;;;;11.93;6.90;;;8.20;99.90;;;;;;5054168;28;20211;-47
2022/04/06 03:45:13;;;;;;;10.80;7.37;;;8.30;99.90;;;;;;5061878;28;20195;-46
2022/04/06 03:47:43;;;;;;;10.53;6.83;;;8.30;99.90;;;;;;5059544;28;20229;-48
2022/04/06 03:50:11;;;;;;;10.77;7.63;;;8.30;99.90;;;;;;5062840;28;20214;-47
2022/04/06 03:52:37;;;;;;;11.73;7.67;;;8.30;99.90;;;;;;5065239;28;20567;-48
2022/04/06 03:55:08;;;;;;;10.43;7.07;;;8.30;99.90;;;;;;5054093;28;20233;-50
2022/04/06 03:57:34;;;;;;;10.73;6.80;;;8.30;99.90;;;;;;5047962;28;20268;-46
2022/04/06 04:00:04;;;;;;;13.67;8.00;;;8.30;99.90;;;;;;5060297;28;20202;-47
2022/04/06 04:02:33;;;;;;;11.93;8.07;;;8.30;99.90;;;;;;5047663;28;20533;-45
2022/04/06 04:05:00;;;;;;;15.33;9.03;;;8.30;99.90;;;;;;5065467;28;20206;-49
2022/04/06 04:07:29;;;;;;;10.47;8.47;;;8.30;99.90;;;;;;5061605;28;20218;-52
2022/04/06 04:09:56;;;;;;;13.57;8.73;;;8.30;99.90;;;;;;5064485;28;20237;-47
2022/04/06 04:12:25;;;;;;;12.87;8.77;;;8.30;99.90;;;;;;5049671;28;20556;-50
2022/04/06 04:14:51;;;;;;;17.20;8.47;;;8.30;99.90;;;;;;5064081;28;20213;-49
2022/04/06 04:17:18;;;;;;;14.10;9.13;;;8.30;99.90;;;;;;5049124;28;20234;-47
2022/04/06 04:19:46;;;;;;;20.73;9.20;;;8.40;99.90;;;;;;5060576;28;20187;-45
2022/04/06 04:22:13;;;;;;;24.63;11.07;;;8.40;99.90;;;;;;5057637;28;20293;-45
2022/04/06 04:24:40;;;;;;;25.63;11.03;;;8.40;99.90;;;;;;5061711;28;20187;-45
2022/04/06 04:27:07;;;;;;;18.17;10.87;;;8.40;99.90;;;;;;5063358;28;20225;-46
2022/04/06 04:29:35;;;;;;;26.03;12.40;;;8.40;99.90;;;;;;5049915;28;20224;-50
2022/04/06 04:32:02;;;;;;;20.73;11.17;;;8.40;99.90;;;;;;5058317;28;20202;-46
2022/04/06 04:34:29;;;;;;;15.47;10.37;;;8.40;99.90;;;;;;5055085;28;20222;-49
2022/04/06 04:36:57;;;;;;;20.00;12.33;;;8.40;99.90;;;;;;5064011;28;20218;-46
2022/04/06 04:39:23;;;;;;;29.17;13.30;;;8.40;99.90;;;;;;5057109;28;20202;-47
2022/04/06 04:41:50;;;;;;;24.20;14.03;;;8.40;99.90;;;;;;5052918;28;20187;-45
2022/04/06 04:44:17;;;;;;;24.37;12.90;;;8.40;99.90;;;;;;5047856;28;20218;-49
2022/04/06 04:46:45;;;;;;;20.90;13.80;;;8.40;99.90;;;;;;5060998;28;20254;-45
2022/04/06 04:49:12;;;;;;;21.37;14.30;;;8.40;99.90;;;;;;5051635;28;20207;-51
2022/04/06 04:51:39;;;;;;;43.53;16.70;;;8.40;99.90;;;;;;5061501;28;20211;-50
2022/04/06 04:54:05;;;;;;;37.43;18.70;;;8.40;99.90;;;;;;5057524;28;20222;-48
2022/04/06 04:56:33;;;;;;;26.73;16.20;;;8.40;99.90;;;;;;5050561;28;20579;-45
2022/04/06 04:59:00;;;;;;;29.17;16.40;;;8.40;99.90;;;;;;5051870;28;20546;-45
2022/04/06 05:01:27;;;;;;;30.20;17.57;;;8.50;99.90;;;;;;5055976;28;20214;-47
2022/04/06 05:03:55;;;;;;;25.77;16.73;;;8.50;99.90;;;;;;5065689;28;20206;-51
2022/04/06 05:06:22;;;;;;;28.50;18.03;;;8.50;99.90;;;;;;5052301;28;20203;-50
2022/04/06 05:08:49;;;;;;;28.07;17.50;;;8.50;99.90;;;;;;5058357;28;20202;-48
2022/04/06 05:11:16;;;;;;;26.40;18.43;;;8.50;99.90;;;;;;5055854;28;20277;-47
2022/04/06 05:13:43;;;;;;;31.43;18.60;;;8.50;99.90;;;;;;5063362;28;20187;-46
2022/04/06 05:16:10;;;;;;;34.20;19.87;;;8.50;99.90;;;;;;5046425;28;20576;-51
2022/04/06 05:18:37;;;;;;;33.50;19.50;;;8.50;99.90;;;;;;5062941;28;20199;-46
2022/04/06 05:21:07;;;;;;;26.20;18.30;;;8.50;99.90;;;;;;5054289;28;20201;-47
2022/04/06 05:23:34;;;;;;;33.57;20.77;;;8.50;99.90;;;;;;5054181;28;20214;-46
2022/04/06 05:26:00;;;;;;;42.27;22.57;;;8.50;99.90;;;;;;5060625;28;20206;-49
2022/04/06 05:28:27;;;;;;;40.47;21.50;;;8.50;99.90;;;;;;5057019;28;20218;-46
2022/04/06 05:30:54;;;;;;;42.07;22.87;;;8.60;99.90;;;;;;5051424;28;20210;-50
2022/04/06 05:33:20;;;;;;;34.90;19.97;;;8.60;99.90;;;;;;5057449;28;20203;-53
2022/04/06 05:35:47;;;;;;;37.30;19.57;;;8.60;99.90;;;;;;5057261;28;20277;-47
2022/04/06 05:38:15;;;;;;;47.00;21.37;;;8.60;99.90;;;;;;5060138;28;20222;-46
2022/04/06 05:40:42;;;;;;;45.53;21.23;;;8.60;99.90;;;;;;5066211;28;20205;-49
2022/04/06 05:43:10;;;;;;;37.03;19.43;;;8.60;99.90;;;;;;5055729;28;20211;-52
2022/04/06 05:45:36;;;;;;;29.20;18.40;;;8.60;99.90;;;;;;5048754;28;20194;-51
2022/04/06 05:48:04;;;;;;;32.67;18.97;;;8.60;99.90;;;;;;5056720;28;20222;-49
2022/04/06 05:50:31;;;;;;;29.13;18.30;;;8.70;99.90;;;;;;5050237;28;21680;-47
2022/04/06 05:52:59;;;;;;;33.03;20.70;;;8.70;99.90;;;;;;5054946;28;20213;-48
2022/04/06 05:55:27;;;;;;;41.63;17.70;;;8.70;99.90;;;;;;5046291;28;20272;-49
2022/04/06 05:57:53;;;;;;;30.07;16.93;;;8.70;99.90;;;;;;5059287;28;20207;-47
2022/04/06 06:00:21;;;;;;;25.20;16.07;;;8.70;99.90;;;;;;5053577;28;20209;-51
2022/04/06 06:02:48;;;;;;;26.20;16.07;;;8.70;99.90;;;;;;5056945;28;20745;-48
2022/04/06 06:05:15;;;;;;;31.10;14.90;;;8.70;99.90;;;;;;5062102;28;20605;-49
2022/04/06 06:07:41;;;;;;;25.80;15.17;;;8.80;99.90;;;;;;5055329;28;20218;-51
2022/04/06 06:10:10;;;;;;;22.70;14.77;;;8.80;99.90;;;;;;5058082;28;20198;-46
2022/04/06 06:12:38;;;;;;;34.93;15.17;;;8.80;99.90;;;;;;5062281;28;20273;-46
2022/04/06 06:15:07;;;;;;;25.40;14.23;;;8.80;99.90;;;;;;5066299;28;20225;-48
2022/04/06 06:17:37;;;;;;;23.90;13.10;;;8.80;99.90;;;;;;5044626;28;20261;-49
2022/04/06 06:20:05;;;;;;;27.33;13.53;;;8.90;99.90;;;;;;5063211;28;20603;-46
2022/04/06 06:22:33;;;;;;;23.70;11.17;;;8.90;99.90;;;;;;5049870;28;20281;-46
2022/04/06 06:25:00;;;;;;;37.37;14.50;;;8.80;99.90;;;;;;5063355;28;20195;-52
2022/04/06 06:27:27;;;;;;;26.80;14.37;;;8.90;99.90;;;;;;5054113;28;20744;-48
2022/04/06 06:29:55;;;;;;;34.67;13.90;;;8.90;99.90;;;;;;5063029;28;20660;-49
2022/04/06 06:32:22;;;;;;;24.53;13.57;;;8.90;99.90;;;;;;5051361;28;20217;-50
2022/04/06 06:34:49;;;;;;;20.73;12.63;;;8.90;99.90;;;;;;5046332;28;20207;-54
2022/04/06 06:37:16;;;;;;;20.57;12.00;;;8.90;99.90;;;;;;5061615;28;20560;-48
2022/04/06 06:39:43;;;;;;;29.90;12.23;;;8.80;99.90;;;;;;5055433;28;20723;-52
2022/04/06 06:42:10;;;;;;;17.57;10.43;;;8.90;99.90;;;;;;5055227;28;20245;-50
2022/04/06 06:44:37;;;;;;;21.70;10.57;;;8.90;99.90;;;;;;5061033;28;20229;-50
2022/04/06 06:47:05;;;;;;;28.00;12.90;;;8.90;99.90;;;;;;5044574;28;20217;-47
2022/04/06 06:49:32;;;;;;;22.20;9.90;;;8.80;99.90;;;;;;5061505;28;20206;-50
2022/04/06 06:51:59;;;;;;;25.53;10.37;;;8.90;99.90;;;;;;5060370;28;20205;-50
2022/04/06 06:54:25;;;;;;;20.63;10.03;;;9.30;99.90;;;;;;5055244;28;20249;-46
2022/04/06 06:56:52;;;;;;;19.27;10.50;;;9.00;99.90;;;;;;5052840;28;20210;-50
2022/04/06 06:59:19;;;;;;;21.63;10.93;;;9.10;99.90;;;;;;5067599;28;20210;-47
2022/04/06 07:01:45;;;;;;;16.07;8.83;;;9.10;99.90;;;;;;5051611;28;20213;-52
2022/04/06 07:04:13;;;;;;;21.67;11.60;;;9.10;99.90;;;;;;5055991;28;20332;-50
2022/04/06 07:06:40;;;;;;;20.70;10.20;;;9.20;99.90;;;;;;5060259;28;20225;-52
2022/04/06 07:09:06;;;;;;;22.57;11.50;;;9.30;99.90;;;;;;5053946;28;20531;-49
2022/04/06 07:11:33;;;;;;;16.80;10.53;;;9.30;99.90;;;;;;5062669;28;20738;-46
2022/04/06 07:14:00;;;;;;;12.20;8.07;;;9.30;99.90;;;;;;5052109;28;20198;-51
2022/04/06 07:16:27;;;;;;;18.00;10.10;;;9.30;99.90;;;;;;5061398;28;20233;-47
2022/04/06 07:18:54;;;;;;;14.77;8.93;;;9.40;99.90;;;;;;5041306;28;20713;-46
2022/04/06 07:21:22;;;;;;;20.43;11.27;;;9.40;99.90;;;;;;5062093;28;20202;-48
2022/04/06 07:23:48;;;;;;;14.70;9.67;;;9.40;99.90;;;;;;5059350;28;20706;-49
2022/04/06 07:26:16;;;;;;;20.53;10.00;;;9.30;99.90;;;;;;5055530;28;20198;-51
2022/04/06 07:28:44;;;;;;;16.67;9.87;;;9.20;99.90;;;;;;5055546;28;20547;-49
2022/04/06 07:31:12;;;;;;;16.43;9.73;;;9.20;99.90;;;;;;5059420;28;20537;-48
2022/04/06 07:33:40;;;;;;;16.30;10.27;;;9.30;99.90;;;;;;5047333;28;20729;-49
2022/04/06 07:36:07;;;;;;;20.13;11.07;;;9.50;99.90;;;;;;5057098;28;20229;-45
2022/04/06 07:38:36;;;;;;;24.20;12.13;;;9.50;99.90;;;;;;5061242;28;20252;-45
2022/04/06 07:41:03;;;;;;;17.73;11.73;;;9.50;99.90;;;;;;5051099;28;20195;-48
2022/04/06 07:43:30;;;;;;;18.10;11.27;;;9.50;99.90;;;;;;5057128;28;20210;-45
2022/04/06 07:45:56;;;;;;;16.73;10.50;;;9.80;99.90;;;;;;5056824;28;20190;-46
2022/04/06 07:48:25;;;;;;;17.03;11.10;;;9.50;99.90;;;;;;5059544;28;21808;-49
2022/04/06 07:50:52;;;;;;;19.97;12.53;;;9.50;99.90;;;;;;5045220;28;20250;-53
2022/04/06 07:53:18;;;;;;;17.93;11.13;;;9.50;99.90;;;;;;5059609;28;20206;-51
2022/04/06 07:55:47;;;;;;;19.23;11.23;;;9.50;99.90;;;;;;5056185;28;20199;-46
2022/04/06 07:58:14;;;;;;;12.57;9.63;;;9.50;99.90;;;;;;5054261;28;20231;-47
2022/04/06 08:00:41;;;;;;;16.23;11.73;;;9.50;99.90;;;;;;5060464;28;20285;-48
2022/04/06 08:03:08;;;;;;;14.20;9.80;;;9.60;99.90;;;;;;5059294;28;20446;-49
2022/04/06 08:05:36;;;;;;;17.83;11.20;;;9.50;99.90;;;;;;5047157;28;20230;-46
2022/04/06 08:08:02;;;;;;;21.07;12.03;;;9.50;99.90;;;;;;5056879;28;20293;-46
2022/04/06 08:10:30;;;;;;;17.87;11.47;;;9.60;99.90;;;;;;5056777;28;20256;-51
2022/04/06 08:12:58;;;;;;;19.87;11.77;;;9.60;99.90;;;;;;5056476;28;20262;-49
2022/04/06 08:15:25;;;;;;;17.57;11.17;;;9.60;99.90;;;;;;5056173;28;20209;-48
2022/04/06 08:17:52;;;;;;;15.90;10.47;;;9.60;99.90;;;;;;5056362;28;21744;-49
2022/04/06 08:20:20;;;;;;;16.13;9.67;;;9.60;99.90;;;;;;5049094;28;20223;-47
2022/04/06 08:22:49;;;;;;;22.50;12.70;;;9.70;99.90;;;;;;5061925;28;20285;-50
2022/04/06 08:25:17;;;;;;;27.70;13.40;;;9.70;99.90;;;;;;5062631;28;20210;-49
2022/04/06 08:27:44;;;;;;;16.90;10.67;;;9.70;99.90;;;;;;5058040;28;20555;-53
2022/04/06 08:30:13;;;;;;;16.93;10.93;;;9.70;99.90;;;;;;5056412;28;20210;-48
2022/04/06 08:32:40;;;;;;;17.40;9.93;;;9.70;99.90;;;;;;5064270;28;20195;-49
2022/04/06 08:35:09;;;;;;;17.93;9.87;;;9.70;99.90;;;;;;5047053;28;20210;-49
2022/04/06 08:37:37;;;;;;;14.33;8.77;;;9.70;99.90;;;;;;5063749;28;20285;-47
2022/04/06 08:40:07;;;;;;;15.07;11.07;;;9.80;99.90;;;;;;5061810;28;20217;-50
2022/04/06 08:42:35;;;;;;;15.67;10.17;;;9.80;99.90;;;;;;5058713;28;20256;-48
2022/04/06 08:45:02;;;;;;;14.37;10.50;;;9.80;99.90;;;;;;5060737;28;20202;-47
2022/04/06 08:47:32;;;;;;;13.97;10.93;;;9.80;99.90;;;;;;5057908;28;20227;-46
2022/04/06 08:49:59;;;;;;;17.67;11.50;;;9.80;99.90;;;;;;5046383;28;21042;-46
2022/04/06 08:52:26;;;;;;;16.37;9.10;;;9.80;99.90;;;;;;5064123;28;20563;-48
2022/04/06 08:54:53;;;;;;;14.20;10.00;;;9.90;99.90;;;;;;5060015;28;20191;-50
2022/04/06 08:57:20;;;;;;;14.93;10.43;;;9.80;99.90;;;;;;5058876;28;20817;-50
2022/04/06 08:59:48;;;;;;;15.40;9.70;;;9.80;99.90;;;;;;5062361;28;20210;-48
2022/04/06 09:02:18;;;;;;;16.87;10.17;;;9.80;99.90;;;;;;5054620;28;20207;-46
2022/04/06 09:04:51;;;;;;;13.80;9.60;;;9.80;99.90;;;;;;5055033;28;20214;-51
2022/04/06 09:07:20;;;;;;;13.10;9.33;;;9.80;99.90;;;;;;5058259;28;20249;-48
2022/04/06 09:09:49;;;;;;;13.90;8.63;;;9.80;99.90;;;;;;5061809;28;20190;-47
2022/04/06 09:12:19;;;;;;;10.37;7.97;;;9.80;99.90;;;;;;5061745;28;20213;-47
2022/04/06 09:14:47;;;;;;;19.40;8.87;;;9.70;99.90;;;;;;5057052;28;20201;-49
2022/04/06 09:17:19;;;;;;;17.10;9.50;;;9.70;99.90;;;;;;5056050;28;20244;-47
2022/04/06 09:19:49;;;;;;;18.40;9.87;;;9.80;99.90;;;;;;5053805;28;20207;-47
2022/04/06 09:22:16;;;;;;;17.93;9.57;;;9.80;99.90;;;;;;5058690;28;20199;-46
2022/04/06 09:24:43;;;;;;;17.63;9.37;;;9.70;99.90;;;;;;5060500;28;20205;-53
2022/04/06 09:27:10;;;;;;;15.27;8.27;;;9.70;99.90;;;;;;5059708;28;20999;-48
2022/04/06 09:29:37;;;;;;;14.87;9.43;;;9.60;99.90;;;;;;5059491;28;20671;-50
2022/04/06 09:32:08;;;;;;;11.90;8.73;;;9.60;99.90;;;;;;5060190;28;20240;-51
2022/04/06 09:34:35;;;;;;;12.03;8.20;;;9.60;99.90;;;;;;5064116;28;20645;-48
2022/04/06 09:37:24;;;;;;;15.10;8.73;;;9.50;99.90;;;;;;5052727;28;20891;-46
2022/04/06 09:39:51;;;;;;;12.07;8.93;;;9.50;99.90;;;;;;5058383;28;20213;-52
2022/04/06 09:42:22;;;;;;;16.37;9.53;;;9.40;99.90;;;;;;5062674;28;20267;-47
2022/04/06 09:47:41;;;;;;;18.33;8.50;;;9.40;99.90;;;;;;5065964;28;20221;-50
2022/04/06 09:50:15;;;;;;;11.13;7.60;;;9.30;99.90;;;;;;5056625;28;20274;-46
2022/04/06 09:53:07;;;;;;;8.47;7.53;;;9.30;99.90;;;;;;5049379;28;20213;-46
2022/04/06 09:55:35;;;;;;;13.37;8.63;;;9.30;99.90;;;;;;5061908;28;20191;-48
2022/04/06 09:58:05;;;;;;;12.00;9.03;;;9.20;99.90;;;;;;5058483;28;20218;-51
2022/04/06 10:00:34;;;;;;;13.70;8.97;;;9.20;99.90;;;;;;5056259;28;20661;-46
2022/04/06 10:03:04;;;;;;;11.57;9.17;;;9.20;99.90;;;;;;5052803;28;20206;-48
2022/04/06 10:05:33;;;;;;;14.60;9.37;;;9.20;99.90;;;;;;5063293;28;20213;-48
2022/04/06 10:08:01;;;;;;;10.43;8.23;;;9.20;99.90;;;;;;5043008;28;20295;-48
2022/04/06 10:10:29;;;;;;;13.87;7.83;;;9.20;99.90;;;;;;5062542;28;20218;-49
2022/04/06 10:12:58;;;;;;;12.50;8.63;;;9.20;99.90;;;;;;5057238;28;20198;-48
2022/04/06 10:15:25;;;;;;;15.23;8.77;;;9.20;99.90;;;;;;5057537;28;20205;-50
2022/04/06 10:17:52;;;;;;;9.07;6.53;;;9.20;99.90;;;;;;5059993;28;20222;-51
2022/04/06 10:20:26;;;;;;;10.03;6.53;;;9.20;99.90;;;;;;5056508;28;20202;-48
2022/04/06 10:23:09;;;;;;;9.50;6.90;;;9.20;99.90;;;;;;5047787;28;20565;-49
2022/04/06 10:25:49;;;;;;;17.47;7.57;;;9.20;99.90;;;;;;5061578;28;20201;-48
2022/04/06 10:28:16;;;;;;;9.33;6.17;;;9.30;99.90;;;;;;5059727;28;20302;-47
2022/04/06 10:31:19;;;;;;;8.60;5.93;;;9.20;99.90;;;;;;5060800;28;20281;-47
2022/04/06 10:33:46;;;;;;;9.60;6.03;;;9.20;99.90;;;;;;5053971;28;20281;-48
2022/04/06 10:36:21;;;;;;;12.43;6.77;;;9.30;99.90;;;;;;5056157;28;20943;-48
2022/04/06 10:39:22;;;;;;;9.90;5.87;;;9.30;99.90;;;;;;5041628;28;20256;-49
2022/04/06 10:42:29;;;;;;;15.77;7.60;;;9.30;99.90;;;;;;4998824;28;20243;-48
2022/04/06 10:44:56;;;;;;;15.97;8.37;;;9.30;99.90;;;;;;4998513;28;20370;-51
2022/04/06 10:47:23;;;;;;;14.50;8.53;;;9.30;99.90;;;;;;5033006;28;20226;-51
2022/04/06 10:50:22;;;;;;;13.67;9.30;;;9.30;99.90;;;;;;5059524;28;20675;-52
2022/04/06 10:52:51;;;;;;;12.63;8.37;;;9.40;99.90;;;;;;5040673;28;20321;-51
2022/04/06 10:55:25;;;;;;;19.53;10.20;;;9.40;99.90;;;;;;5059203;28;20198;-51
2022/04/06 10:58:02;;;;;;;22.77;10.67;;;9.40;99.90;;;;;;5058332;28;20275;-48
2022/04/06 11:00:29;;;;;;;16.23;9.20;;;9.40;99.90;;;;;;5060427;28;20205;-52
2022/04/06 11:03:13;;;;;;;16.50;9.03;;;9.40;99.90;;;;;;5050651;28;20195;-50
2022/04/06 11:05:49;;;;;;;13.57;9.00;;;9.40;99.90;;;;;;5060648;28;20203;-48
2022/04/06 11:11:45;;;;;;;10.37;7.93;;;9.30;99.90;;;;;;5058670;28;20222;-48
2022/04/06 11:14:12;;;;;;;10.70;8.00;;;9.30;99.90;;;;;;5059006;28;20200;-50
2022/04/06 11:16:44;;;;;;;12.00;8.37;;;9.40;99.90;;;;;;5061992;28;20221;-49
2022/04/06 11:19:11;;;;;;;8.57;7.30;;;9.40;99.90;;;;;;5053843;28;20207;-47
2022/04/06 11:21:53;;;;;;;15.83;9.00;;;9.40;99.90;;;;;;5053650;28;20199;-51
2022/04/06 11:24:23;;;;;;;9.93;8.30;;;9.50;99.90;;;;;;5046348;28;20207;-50
2022/04/06 11:26:51;;;;;;;12.57;8.50;;;9.50;99.90;;;;;;5055631;28;20210;-49
2022/04/06 11:29:18;;;;;;;12.23;8.43;;;9.40;99.90;;;;;;5058344;28;20905;-48
2022/04/06 11:31:56;;;;;;;15.07;10.03;;;9.40;99.90;;;;;;5054007;28;20206;-52
2022/04/06 11:34:46;;;;;;;11.00;7.57;;;9.50;99.90;;;;;;5054545;28;20194;-49
2022/04/06 11:37:14;;;;;;;12.00;7.80;;;9.50;99.90;;;;;;5038084;28;20235;-48
2022/04/06 11:39:41;;;;;;;10.87;6.97;;;9.50;99.90;;;;;;5044807;28;20690;-48
2022/04/06 11:42:17;;;;;;;7.90;5.33;;;9.50;99.90;;;;;;5053218;28;20948;-50
2022/04/06 11:44:44;;;;;;;8.13;7.20;;;9.50;99.90;;;;;;5060034;28;20675;-51
2022/04/06 11:47:11;;;;;;;11.07;8.23;;;9.60;99.90;;;;;;5056931;28;20238;-46
2022/04/06 11:49:39;;;;;;;8.70;7.83;;;9.60;99.90;;;;;;5051091;28;20201;-48
2022/04/06 11:52:07;;;;;;;10.57;8.60;;;9.70;99.90;;;;;;5056971;28;20777;-50
2022/04/06 11:54:35;;;;;;;14.73;9.23;;;9.80;99.90;;;;;;5064395;28;20367;-50
2022/04/06 11:57:02;;;;;;;8.67;7.77;;;9.90;99.90;;;;;;5043984;28;20877;-49
2022/04/06 11:59:31;;;;;;;9.90;7.40;;;9.90;99.90;;;;;;5058014;28;20214;-46
2022/04/06 12:01:59;;;;;;;8.80;5.93;;;9.80;99.90;;;;;;5059252;28;20234;-50
2022/04/06 12:04:26;;;;;;;16.67;9.83;;;9.70;99.90;;;;;;5058302;28;20214;-46
2022/04/06 12:06:53;;;;;;;10.73;8.60;;;9.70;99.90;;;;;;5054245;28;20214;-48
2022/04/06 12:09:20;;;;;;;13.73;9.23;;;9.70;99.90;;;;;;5063676;28;20195;-49
2022/04/06 12:11:51;;;;;;;12.50;9.23;;;9.70;99.90;;;;;;5047277;28;20203;-51
2022/04/06 12:14:18;;;;;;;13.70;8.93;;;9.70;99.90;;;;;;5058806;28;20233;-47
2022/04/06 12:16:48;;;;;;;10.90;9.23;;;9.70;99.90;;;;;;5061362;28;20240;-52
2022/04/06 12:19:16;;;;;;;14.57;9.13;;;9.60;99.90;;;;;;5055237;28;20431;-48
2022/04/06 12:21:44;;;;;;;11.73;9.50;;;9.60;99.90;;;;;;5063476;28;20278;-50
2022/04/06 12:24:12;;;;;;;14.87;9.67;;;9.60;99.90;;;;;;5058086;28;20905;-46
2022/04/06 12:26:41;;;;;;;14.97;10.43;;;9.50;99.90;;;;;;5034575;28;20830;-48
2022/04/06 12:29:15;;;;;;;13.93;8.37;;;9.50;99.90;;;;;;5055349;28;20248;-50
2022/04/06 12:31:42;;;;;;;14.57;9.80;;;9.50;99.90;;;;;;5050570;28;20978;-47
2022/04/06 12:34:10;;;;;;;12.63;9.43;;;9.50;99.90;;;;;;5054464;28;20291;-49
2022/04/06 12:36:37;;;;;;;18.63;9.67;;;9.50;99.90;;;;;;5050476;28;20214;-53
2022/04/06 12:39:08;;;;;;;14.27;9.30;;;9.50;99.90;;;;;;5059560;28;20218;-49
2022/04/06 12:41:36;;;;;;;12.57;9.93;;;9.50;99.90;;;;;;5044711;28;20194;-50
2022/04/06 12:44:14;;;;;;;12.47;9.00;;;9.60;99.90;;;;;;5057655;28;20456;-47
2022/04/06 12:46:44;;;;;;;16.30;8.87;;;9.60;99.90;;;;;;5051594;28;20315;-47
2022/04/06 12:49:35;;;;;;;12.50;8.40;;;9.70;99.90;;;;;;5058401;28;20325;-52
2022/04/06 12:52:15;;;;;;;13.70;8.27;;;9.70;99.90;;;;;;5060766;28;20245;-48
2022/04/06 12:54:43;;;;;;;12.63;9.77;;;9.80;99.90;;;;;;5055286;28;20203;-50
2022/04/06 12:57:13;;;;;;;16.37;10.27;;;9.80;99.90;;;;;;5047159;28;20231;-52
2022/04/06 12:59:45;;;;;;;13.87;9.50;;;9.90;99.90;;;;;;5058171;28;20206;-48
2022/04/06 13:02:25;;;;;;;16.43;9.90;;;9.90;99.90;;;;;;5058065;28;20245;-52